createdAt,value
2023-05-12T00:00:24.759Z,99544.38
2023-05-12T00:02:26.600Z,99549.69
2023-05-12T00:04:28.201Z,99550.00
2023-05-12T00:06:29.804Z,99539.94
2023-05-12T00:08:31.474Z,99544.44
2023-05-12T00:10:33.107Z,99543.41
2023-05-12T00:12:34.635Z,99552.41
2023-05-12T00:14:36.918Z,99547.03
2023-05-12T00:16:38.504Z,99550.81
2023-05-12T00:18:40.105Z,99556.69
2023-05-12T00:20:41.778Z,99553.88
2023-05-12T00:22:43.471Z,99551.47
2023-05-12T00:24:45.051Z,99552.75
2023-05-12T00:26:46.598Z,99551.38
2023-05-12T00:28:48.779Z,99555.34
2023-05-12T00:30:50.465Z,99556.38
2023-05-12T00:32:52.094Z,99560.28
2023-05-12T00:34:54.585Z,99562.06
2023-05-12T00:36:56.121Z,99563.91
2023-05-12T00:38:58.482Z,99564.97
2023-05-12T00:41:01.275Z,99563.56
2023-05-12T00:43:02.776Z,99565.13
2023-05-12T00:45:05.816Z,99569.63
2023-05-12T00:47:07.881Z,99572.28
2023-05-12T00:49:09.452Z,99572.50
2023-05-12T00:51:12.553Z,99579.66
2023-05-12T00:53:14.207Z,99577.28
2023-05-12T00:55:16.349Z,99576.13
2023-05-12T00:57:19.107Z,99578.53
2023-05-12T00:59:20.688Z,99578.78
2023-05-12T01:01:22.379Z,99577.66
2023-05-12T01:03:24.185Z,99578.16
2023-05-12T01:05:36.132Z,99572.84
2023-05-12T01:07:39.176Z,99576.53
2023-05-12T01:09:40.780Z,99578.03
2023-05-12T01:11:42.322Z,99570.91
2023-05-12T01:13:43.949Z,99587.84
2023-05-12T01:15:47.875Z,99581.75
2023-05-12T01:18:02.016Z,99582.22
2023-05-12T01:20:06.140Z,99580.38
2023-05-12T01:22:09.312Z,99586.25
2023-05-12T01:24:12.171Z,99580.38
2023-05-12T01:26:13.824Z,99583.03
2023-05-12T01:28:16.658Z,99588.00
2023-05-12T01:30:20.119Z,99586.97
2023-05-12T01:32:22.340Z,99584.31
2023-05-12T01:34:23.992Z,99589.31
2023-05-12T01:36:25.525Z,99589.03
2023-05-12T01:38:27.520Z,99583.41
2023-05-12T01:40:29.124Z,99592.75
2023-05-12T01:42:30.612Z,99581.34
2023-05-12T01:44:32.229Z,99587.69
2023-05-12T01:46:33.801Z,99589.53
2023-05-12T01:48:35.443Z,99593.25
2023-05-12T01:50:36.969Z,99594.28
2023-05-12T01:52:38.456Z,99587.94
2023-05-12T01:54:40.162Z,99598.28
2023-05-12T01:56:42.085Z,99587.94
2023-05-12T01:58:43.619Z,99598.78
2023-05-12T02:00:45.204Z,99601.66
2023-05-12T02:02:46.846Z,99602.47
2023-05-12T02:04:48.444Z,99609.88
2023-05-12T02:06:49.975Z,99601.09
2023-05-12T02:08:51.788Z,99596.03
2023-05-12T02:11:08.352Z,99606.06
2023-05-12T02:13:09.858Z,99609.44
2023-05-12T02:15:11.587Z,99607.91
2023-05-12T02:17:13.250Z,99614.25
2023-05-12T02:19:14.748Z,99612.66
2023-05-12T02:21:16.389Z,99609.22
2023-05-12T02:23:17.968Z,99613.44
2023-05-12T02:25:19.507Z,99603.56
2023-05-12T02:27:21.160Z,99605.41
2023-05-12T02:29:23.107Z,99599.84
2023-05-12T02:31:24.679Z,99606.78
2023-05-12T02:33:26.854Z,99606.56
2023-05-12T02:35:28.479Z,99606.78
2023-05-12T02:37:29.978Z,99600.13
2023-05-12T02:39:31.578Z,99600.91
2023-05-12T02:41:33.148Z,99607.25
2023-05-12T02:43:34.655Z,99596.09
2023-05-12T02:45:36.416Z,99597.94
2023-05-12T02:47:38.011Z,99602.19
2023-05-12T02:49:39.618Z,99607.16
2023-05-12T02:51:41.114Z,99607.06
2023-05-12T02:53:42.641Z,99610.28
2023-05-12T02:55:44.220Z,99609.47
2023-05-12T02:57:45.865Z,99609.47
2023-05-12T02:59:47.453Z,99611.34
2023-05-12T03:01:49.047Z,99617.56
2023-05-12T03:03:50.738Z,99609.94
2023-05-12T03:05:53.445Z,99606.75
2023-05-12T03:07:55.000Z,99609.41
2023-05-12T03:09:57.748Z,99611.38
2023-05-12T03:11:59.277Z,99614.84
2023-05-12T03:14:00.829Z,99611.38
2023-05-12T03:16:02.433Z,99610.56
2023-05-12T03:18:04.180Z,99617.94
2023-05-12T03:20:06.863Z,99615.06
2023-05-12T03:22:08.698Z,99612.41
2023-05-12T03:24:10.462Z,99614.50
2023-05-12T03:26:11.991Z,99612.56
2023-05-12T03:28:13.513Z,99614.63
2023-05-12T03:30:15.137Z,99619.69
2023-05-12T03:32:16.799Z,99618.56
2023-05-12T03:34:18.928Z,99622.00
2023-05-12T03:36:20.495Z,99625.13
2023-05-12T03:38:22.329Z,99620.63
2023-05-12T03:40:23.920Z,99616.59
2023-05-12T03:42:25.500Z,99629.50
2023-05-12T03:44:27.053Z,99624.22
2023-05-12T03:46:29.008Z,99630.78
2023-05-12T03:48:30.615Z,99623.88
2023-05-12T03:50:32.175Z,99630.78
2023-05-12T03:52:33.839Z,99621.13
2023-05-12T03:54:37.217Z,99625.97
2023-05-12T03:56:39.580Z,99629.09
2023-05-12T03:58:41.125Z,99629.91
2023-05-12T04:00:44.154Z,99632.53
2023-05-12T04:02:46.506Z,99632.88
2023-05-12T04:04:48.217Z,99637.38
2023-05-12T04:06:49.817Z,99646.13
2023-05-12T04:08:51.357Z,99647.97
2023-05-12T04:10:56.164Z,99640.59
2023-05-12T04:12:57.749Z,99649.81
2023-05-12T04:14:59.718Z,99650.03
2023-05-12T04:17:01.390Z,99655.44
2023-05-12T04:19:03.412Z,99656.47
2023-05-12T04:21:05.538Z,99659.72
2023-05-12T04:23:07.436Z,99653.38
2023-05-12T04:25:09.992Z,99657.97
2023-05-12T04:27:11.761Z,99664.88
2023-05-12T04:29:13.422Z,99659.81
2023-05-12T04:31:14.984Z,99660.84
2023-05-12T04:33:16.554Z,99661.19
2023-05-12T04:35:18.157Z,99664.41
2023-05-12T04:37:19.721Z,99667.28
2023-05-12T04:39:21.380Z,99672.38
2023-05-12T04:41:22.911Z,99658.91
2023-05-12T04:45:28.879Z,99672.50
2023-05-12T04:47:30.504Z,99685.28
2023-05-12T04:49:32.079Z,99685.03
2023-05-12T04:51:33.654Z,99689.84
2023-05-12T04:53:36.315Z,99688.25
2023-05-12T04:55:37.888Z,99698.94
2023-05-12T04:57:41.446Z,99708.31
2023-05-12T04:59:43.236Z,99700.34
2023-05-12T05:01:44.799Z,99710.72
2023-05-12T05:03:46.469Z,99706.00
2023-05-12T05:05:49.081Z,99713.22
2023-05-12T05:07:50.701Z,99717.75
2023-05-12T05:09:52.294Z,99723.13
2023-05-12T05:11:53.947Z,99719.53
2023-05-12T05:13:55.628Z,99724.84
2023-05-12T05:15:57.225Z,99730.81
2023-05-12T05:18:01.744Z,99730.59
2023-05-12T05:20:09.499Z,99735.69
2023-05-12T05:22:13.359Z,99741.31
2023-05-12T05:24:15.045Z,99740.25
2023-05-12T05:26:16.607Z,99741.41
2023-05-12T05:28:18.144Z,99737.16
2023-05-12T05:30:19.780Z,99746.72
2023-05-12T05:32:21.853Z,99740.22
2023-05-12T05:34:23.514Z,99738.16
2023-05-12T05:36:29.936Z,99747.50
2023-05-12T05:38:32.726Z,99750.81
2023-05-12T05:40:48.819Z,99746.88
2023-05-12T05:42:54.276Z,99751.47
2023-05-12T05:44:56.386Z,99753.28
2023-05-12T05:46:58.768Z,99757.28
2023-05-12T05:49:00.374Z,99756.00
2023-05-12T05:51:02.319Z,99761.72
2023-05-12T05:53:03.858Z,99762.22
2023-05-12T05:55:05.680Z,99765.75
2023-05-12T05:57:07.321Z,99770.13
2023-05-12T05:59:09.882Z,99770.84
2023-05-12T06:01:11.789Z,99771.72
2023-05-12T06:03:13.530Z,99768.84
2023-05-12T06:05:15.193Z,99768.84
2023-05-12T06:07:16.749Z,99771.50
2023-05-12T06:09:18.315Z,99771.09
2023-05-12T06:11:19.851Z,99776.16
2023-05-12T06:13:22.587Z,99778.75
2023-05-12T06:15:24.109Z,99781.84
2023-05-12T06:17:25.785Z,99782.34
2023-05-12T06:19:27.341Z,99788.78
2023-05-12T06:21:28.932Z,99788.41
2023-05-12T06:23:30.707Z,99790.28
2023-05-12T06:25:33.324Z,99796.25
2023-05-12T06:27:34.963Z,99798.69
2023-05-12T06:29:36.499Z,99798.22
2023-05-12T06:31:38.094Z,99796.47
2023-05-12T06:33:39.743Z,99803.41
2023-05-12T06:35:41.276Z,99801.47
2023-05-12T06:37:44.898Z,99806.00
2023-05-12T06:39:46.384Z,99800.53
2023-05-12T06:41:47.911Z,99803.66
2023-05-12T06:43:49.438Z,99803.66
2023-05-12T06:45:51.482Z,99815.56
2023-05-12T06:47:53.133Z,99820.06
2023-05-12T06:49:54.721Z,99814.56
2023-05-12T06:51:56.489Z,99817.66
2023-05-12T06:53:58.075Z,99814.53
2023-05-12T06:55:59.596Z,99818.78
2023-05-12T06:58:01.180Z,99818.88
2023-05-12T07:00:03.520Z,99820.00
2023-05-12T07:02:05.290Z,99828.78
2023-05-12T07:04:07.984Z,99822.78
2023-05-12T07:06:09.751Z,99822.84
2023-05-12T07:08:11.299Z,99832.44
2023-05-12T07:10:12.886Z,99828.03
2023-05-12T07:12:14.462Z,99836.56
2023-05-12T07:14:15.951Z,99834.88
2023-05-12T07:16:19.383Z,99832.59
2023-05-12T07:18:21.065Z,99831.09
2023-05-12T07:20:22.870Z,99833.53
2023-05-12T07:22:24.404Z,99838.03
2023-05-12T07:24:26.085Z,99834.00
2023-05-12T07:26:29.282Z,99833.47
2023-05-12T07:28:32.469Z,99834.91
2023-05-12T07:30:34.034Z,99840.56
2023-05-12T07:32:35.584Z,99841.84
2023-05-12T07:34:38.366Z,99836.59
2023-05-12T07:36:39.848Z,99842.00
2023-05-12T07:38:41.700Z,99844.00
2023-05-12T07:40:44.641Z,99844.91
2023-05-12T07:42:46.220Z,99850.78
2023-05-12T07:44:48.002Z,99848.84
2023-05-12T07:46:49.624Z,99845.88
2023-05-12T07:48:51.151Z,99853.84
2023-05-12T07:50:52.976Z,99850.81
2023-05-12T07:52:54.610Z,99848.31
2023-05-12T07:54:57.707Z,99849.66
2023-05-12T07:56:59.238Z,99857.59
2023-05-12T07:59:01.223Z,99858.97
2023-05-12T08:01:06.012Z,99864.41
2023-05-12T08:03:07.759Z,99863.22
2023-05-12T08:05:10.720Z,99861.63
2023-05-12T08:07:12.248Z,99866.88
2023-05-12T08:09:13.824Z,99864.63
2023-05-12T08:11:15.454Z,99868.38
2023-05-12T08:13:17.081Z,99864.19
2023-05-12T08:15:18.823Z,99869.91
2023-05-12T08:17:20.594Z,99868.03
2023-05-12T08:19:22.211Z,99872.91
2023-05-12T08:21:24.077Z,99870.03
2023-05-12T08:23:25.692Z,99872.69
2023-05-12T08:25:30.301Z,99863.38
2023-05-12T08:27:31.998Z,99871.53
2023-05-12T08:29:33.622Z,99870.00
2023-05-12T08:31:35.534Z,99873.69
2023-05-12T08:33:37.309Z,99873.34
2023-05-12T08:35:39.194Z,99873.38
2023-05-12T08:37:40.833Z,99880.28
2023-05-12T08:39:42.420Z,99876.59
2023-05-12T08:41:51.467Z,99878.22
2023-05-12T08:43:53.224Z,99877.81
2023-05-12T08:45:57.724Z,99878.06
2023-05-12T08:48:00.964Z,99878.78
2023-05-12T08:50:04.426Z,99885.06
2023-05-12T08:52:07.812Z,99885.63
2023-05-12T08:54:10.602Z,99897.94
2023-05-12T08:58:20.117Z,99892.41
2023-05-12T09:00:28.718Z,99895.31
2023-05-12T09:02:44.735Z,99895.84
2023-05-12T09:04:54.977Z,99898.41
2023-05-12T09:06:58.231Z,99898.81
2023-05-12T09:09:00.364Z,99895.16
2023-05-12T09:11:02.544Z,99901.31
2023-05-12T09:13:19.642Z,99893.31
2023-05-12T09:15:29.636Z,99893.13
2023-05-12T09:17:31.205Z,99897.44
2023-05-12T09:19:35.576Z,99894.41
2023-05-12T09:21:37.500Z,99895.03
2023-05-12T09:23:40.112Z,99899.00
2023-05-12T09:25:41.950Z,99892.63
2023-05-12T09:27:44.033Z,99902.00
2023-05-12T09:29:59.297Z,99900.19
2023-05-12T09:32:03.865Z,99897.50
2023-05-12T09:34:10.129Z,99897.84
2023-05-12T09:36:12.830Z,99901.59
2023-05-12T09:38:14.777Z,99896.56
2023-05-12T09:40:16.390Z,99904.84
2023-05-12T09:42:18.221Z,99898.19
2023-05-12T09:44:20.791Z,99898.69
2023-05-12T09:46:24.685Z,99901.13
2023-05-12T09:48:27.548Z,99906.19
2023-05-12T09:50:40.835Z,99897.09
2023-05-12T09:52:45.970Z,99901.91
2023-05-12T09:54:47.798Z,99909.13
2023-05-12T09:56:49.768Z,99900.84
2023-05-12T09:58:51.315Z,99901.63
2023-05-12T10:02:59.123Z,99900.28
2023-05-12T10:05:06.246Z,99912.31
2023-05-12T10:07:11.896Z,99905.66
2023-05-12T10:09:20.705Z,99900.31
2023-05-12T10:11:22.984Z,99900.03
2023-05-12T10:13:24.600Z,99904.31
2023-05-12T10:15:27.353Z,99900.00
2023-05-12T10:17:29.630Z,99909.03
2023-05-12T10:19:31.422Z,99907.13
2023-05-12T10:21:33.595Z,99902.50
2023-05-12T10:23:38.091Z,99909.16
2023-05-12T10:25:42.444Z,99905.91
2023-05-12T10:27:44.786Z,99908.84
2023-05-12T10:29:48.169Z,99909.78
2023-05-12T10:31:50.173Z,99901.41
2023-05-12T10:33:59.589Z,99902.25
2023-05-12T10:36:01.226Z,99905.06
2023-05-12T10:38:10.518Z,99902.06
2023-05-12T10:40:22.705Z,99899.59
2023-05-12T10:42:25.790Z,99899.56
2023-05-12T10:44:28.630Z,99890.94
2023-05-12T10:46:30.812Z,99899.97
2023-05-12T10:48:32.599Z,99890.19
2023-05-12T10:50:34.515Z,99891.94
2023-05-12T10:52:36.071Z,99888.00
2023-05-12T10:54:41.121Z,99892.66
2023-05-12T10:56:44.965Z,99886.09
2023-05-12T10:59:13.605Z,99897.44
2023-05-12T11:01:25.162Z,99883.16
2023-05-12T11:03:27.517Z,99890.78
2023-05-12T11:05:34.951Z,99881.41
2023-05-12T11:07:37.578Z,99890.38
2023-05-12T11:09:53.081Z,99889.88
2023-05-12T11:12:00.519Z,99892.09
2023-05-12T11:14:02.432Z,99892.97
2023-05-12T11:16:04.354Z,99879.38
2023-05-12T11:18:06.128Z,99890.84
2023-05-12T11:20:09.901Z,99889.06
2023-05-12T11:22:12.685Z,99882.53
2023-05-12T11:24:14.639Z,99883.03
2023-05-12T11:26:19.380Z,99889.28
2023-05-12T11:28:21.071Z,99894.56
2023-05-12T11:30:22.753Z,99886.84
2023-05-12T11:32:24.306Z,99885.03
2023-05-12T11:34:27.315Z,99886.88
2023-05-12T11:36:28.815Z,99889.03
2023-05-12T11:38:30.365Z,99884.28
2023-05-12T11:40:31.889Z,99884.72
2023-05-12T11:42:33.435Z,99885.84
2023-05-12T11:44:35.623Z,99893.84
2023-05-12T11:46:40.205Z,99893.63
2023-05-12T11:48:41.803Z,99890.19
2023-05-12T11:50:47.598Z,99894.38
2023-05-12T11:52:49.886Z,99899.38
2023-05-12T11:54:52.397Z,99904.97
2023-05-12T11:56:55.377Z,99895.38
2023-05-12T11:58:58.446Z,99906.81
2023-05-12T12:01:10.612Z,99896.59
2023-05-12T12:03:14.097Z,99901.84
2023-05-12T12:05:19.655Z,99901.53
2023-05-12T12:07:34.569Z,99903.72
2023-05-12T12:09:40.871Z,99913.19
2023-05-12T12:11:42.402Z,99908.91
2023-05-12T12:16:30.517Z,99900.38
2023-05-12T12:18:32.222Z,99906.38
2023-05-12T12:20:33.855Z,99910.06
2023-05-12T12:22:35.496Z,99912.13
2023-05-12T12:24:37.030Z,99900.09
2023-05-12T12:26:39.638Z,99896.78
2023-05-12T12:28:41.285Z,99906.91
2023-05-12T12:30:43.149Z,99904.13
2023-05-12T12:32:46.149Z,99912.88
2023-05-12T12:34:49.107Z,99911.63
2023-05-12T12:36:51.779Z,99910.97
2023-05-12T12:38:53.504Z,99906.84
2023-05-12T12:40:55.064Z,99907.31
2023-05-12T12:42:56.920Z,99904.59
2023-05-12T12:44:58.472Z,99904.84
2023-05-12T12:47:00.214Z,99901.94
2023-05-12T12:49:01.789Z,99901.94
2023-05-12T12:51:03.509Z,99905.38
2023-05-12T12:53:05.258Z,99895.09
2023-05-12T12:55:07.307Z,99898.31
2023-05-12T12:57:08.832Z,99897.13
2023-05-12T12:59:10.442Z,99901.63
2023-05-12T13:01:12.069Z,99893.06
2023-05-12T13:03:13.682Z,99905.16
2023-05-12T13:05:16.331Z,99901.84
2023-05-12T13:07:17.949Z,99894.84
2023-05-12T13:09:20.218Z,99901.50
2023-05-12T13:11:21.904Z,99897.81
2023-05-12T13:13:24.533Z,99901.00
2023-05-12T13:15:26.307Z,99891.78
2023-05-12T13:17:28.467Z,99902.31
2023-05-12T13:19:30.098Z,99904.31
2023-05-12T13:21:31.599Z,99903.44
2023-05-12T13:23:33.218Z,99905.34
2023-05-12T13:25:34.765Z,99898.91
2023-05-12T13:27:37.092Z,99902.97
2023-05-12T13:29:39.728Z,99909.69
2023-05-12T13:31:42.658Z,99898.06
2023-05-12T13:33:44.227Z,99900.31
2023-05-12T13:35:45.735Z,99903.50
2023-05-12T13:37:47.581Z,99892.81
2023-05-12T13:39:49.210Z,99886.97
2023-05-12T13:41:51.236Z,99887.56
2023-05-12T13:43:52.759Z,99884.28
2023-05-12T13:45:54.356Z,99882.06
2023-05-12T13:47:55.915Z,99885.69
2023-05-12T13:49:57.546Z,99887.16
2023-05-12T13:51:59.113Z,99878.66
2023-05-12T13:54:00.669Z,99882.81
2023-05-12T13:56:02.224Z,99879.50
2023-05-12T13:58:04.025Z,99882.41
2023-05-12T14:00:08.381Z,99872.72
2023-05-12T14:02:11.957Z,99869.78
2023-05-12T14:04:14.361Z,99871.94
2023-05-12T14:06:15.888Z,99876.53
2023-05-12T14:08:17.466Z,99867.84
2023-05-12T14:10:19.140Z,99863.91
2023-05-12T14:12:20.696Z,99854.34
2023-05-12T14:14:22.191Z,99854.91
2023-05-12T14:16:23.767Z,99849.34
2023-05-12T14:18:26.072Z,99849.72
2023-05-12T14:20:27.614Z,99851.16
2023-05-12T14:22:29.101Z,99873.31
2023-05-12T14:24:30.632Z,99869.00
2023-05-12T14:26:32.466Z,99870.34
2023-05-12T14:28:34.344Z,99874.50
2023-05-12T14:30:37.370Z,99875.22
2023-05-12T14:32:39.036Z,99879.25
2023-05-12T14:34:40.758Z,99893.78
2023-05-12T14:36:42.292Z,99917.69
2023-05-12T14:38:43.844Z,99931.66
2023-05-12T14:40:47.407Z,99920.16
2023-05-12T14:42:48.997Z,99917.56
2023-05-12T14:44:50.557Z,99919.22
2023-05-12T14:46:52.092Z,99926.91
2023-05-12T14:48:53.617Z,99931.16
2023-05-12T14:50:56.630Z,99931.66
2023-05-12T14:52:58.498Z,99926.53
2023-05-12T14:54:59.995Z,99922.59
2023-05-12T14:57:01.535Z,99925.06
2023-05-12T14:59:04.161Z,99920.91
2023-05-12T15:01:08.736Z,99926.00
2023-05-12T15:03:11.603Z,99937.06
2023-05-12T15:05:14.120Z,99942.13
2023-05-12T15:07:15.625Z,99932.44
2023-05-12T15:09:17.387Z,99932.28
2023-05-12T15:11:18.936Z,99924.69
2023-05-12T15:13:22.547Z,99923.91
2023-05-12T15:15:24.169Z,99924.06
2023-05-12T15:17:27.255Z,99930.22
2023-05-12T15:19:28.846Z,99917.63
2023-05-12T15:21:30.783Z,99922.78
2023-05-12T15:23:32.404Z,99923.78
2023-05-12T15:25:33.977Z,99920.69
2023-05-12T15:27:35.549Z,99923.97
2023-05-12T15:29:41.417Z,99915.56
2023-05-12T15:31:42.988Z,99923.50
2023-05-12T15:33:44.592Z,99918.13
2023-05-12T15:35:46.119Z,99903.28
2023-05-12T15:37:47.631Z,99903.13
2023-05-12T15:39:51.080Z,99906.59
2023-05-12T15:41:53.227Z,99906.59
2023-05-12T15:43:54.747Z,99907.97
2023-05-12T15:45:57.080Z,99911.81
2023-05-12T15:47:59.004Z,99910.13
2023-05-12T15:50:00.735Z,99910.09
2023-05-12T15:52:02.551Z,99906.03
2023-05-12T15:54:05.282Z,99901.63
2023-05-12T15:56:08.834Z,99906.88
2023-05-12T15:58:10.419Z,99908.19
2023-05-12T16:00:12.847Z,99902.34
2023-05-12T16:02:14.537Z,99904.78
2023-05-12T16:04:16.238Z,99903.69
2023-05-12T16:06:17.983Z,99899.63
2023-05-12T16:08:20.402Z,99902.50
2023-05-12T16:10:22.109Z,99907.81
2023-05-12T16:12:23.653Z,99898.56
2023-05-12T16:14:25.604Z,99899.59
2023-05-12T16:16:27.250Z,99898.72
2023-05-12T16:18:32.044Z,99891.38
2023-05-12T16:20:33.763Z,99899.25
2023-05-12T16:22:35.351Z,99897.09
2023-05-12T16:24:37.404Z,99892.00
2023-05-12T16:26:39.057Z,99891.63
2023-05-12T16:28:40.679Z,99895.31
2023-05-12T16:30:42.200Z,99890.00
2023-05-12T16:32:44.305Z,99882.28
2023-05-12T16:34:45.929Z,99883.94
2023-05-12T16:36:47.497Z,99890.50
2023-05-12T16:38:49.062Z,99895.66
2023-05-12T16:40:50.854Z,99890.28
2023-05-12T16:42:52.733Z,99889.53
2023-05-12T16:44:57.312Z,99894.78
2023-05-12T16:46:58.838Z,99891.53
2023-05-12T16:49:00.364Z,99892.13
2023-05-12T16:51:12.423Z,99891.44
2023-05-12T16:53:13.944Z,99890.22
2023-05-12T16:55:15.525Z,99890.75
2023-05-12T16:57:17.120Z,99893.81
2023-05-12T16:59:18.627Z,99900.91
2023-05-12T17:01:20.199Z,99899.28
2023-05-12T17:03:22.850Z,99902.78
2023-05-12T17:05:24.690Z,99902.75
2023-05-12T17:07:26.494Z,99903.00
2023-05-12T17:09:28.082Z,99906.50
2023-05-12T17:11:29.660Z,99914.44
2023-05-12T17:13:31.264Z,99912.31
2023-05-12T17:15:32.787Z,99914.44
2023-05-12T17:17:34.625Z,99917.25
2023-05-12T17:19:41.722Z,99912.91
2023-05-12T17:21:43.478Z,99923.91
2023-05-12T17:23:45.734Z,99917.63
2023-05-12T17:25:47.331Z,99920.59
2023-05-12T17:27:49.397Z,99923.16
2023-05-12T17:29:50.939Z,99923.56
2023-05-12T17:31:52.753Z,99925.66
2023-05-12T17:33:54.453Z,99930.97
2023-05-12T17:36:10.958Z,99927.91
2023-05-12T17:38:14.234Z,99929.03
2023-05-12T17:40:17.902Z,99928.03
2023-05-12T17:42:19.565Z,99933.00
2023-05-12T17:44:21.600Z,99930.09
2023-05-12T17:46:23.315Z,99929.31
2023-05-12T17:48:26.424Z,99928.50
2023-05-12T17:50:28.001Z,99931.38
2023-05-12T17:52:29.651Z,99935.63
2023-05-12T17:54:31.578Z,99926.03
2023-05-12T17:56:33.130Z,99936.13
2023-05-12T17:58:34.735Z,99934.75
2023-05-12T18:00:37.992Z,99935.31
2023-05-12T18:02:41.892Z,99937.47
2023-05-12T18:04:43.711Z,99927.66
2023-05-12T18:06:50.025Z,99927.38
2023-05-12T18:08:52.274Z,99932.03
2023-05-12T18:10:53.851Z,99932.78
2023-05-12T18:12:55.682Z,99930.16
2023-05-12T18:14:57.240Z,99943.28
2023-05-12T18:16:59.030Z,99942.56
2023-05-12T18:19:00.954Z,99937.47
2023-05-12T18:21:02.862Z,99952.22
2023-05-12T18:23:04.616Z,99940.19
2023-05-12T18:25:06.771Z,99944.22
2023-05-12T18:27:08.337Z,99940.19
2023-05-12T18:29:10.024Z,99949.03
2023-05-12T18:33:16.252Z,99958.66
2023-05-12T18:35:18.024Z,99956.25
2023-05-12T18:37:20.111Z,99957.53
2023-05-12T18:39:22.550Z,99960.75
2023-05-12T18:41:24.107Z,99958.31
2023-05-12T18:43:25.778Z,99962.56
2023-05-12T18:45:27.416Z,99966.06
2023-05-12T18:47:29.042Z,99961.72
2023-05-12T18:49:30.744Z,99968.66
2023-05-12T18:51:32.801Z,99969.13
2023-05-12T18:53:34.318Z,99965.34
2023-05-12T18:55:35.947Z,99968.25
2023-05-12T18:57:37.451Z,99972.75
2023-05-12T18:59:39.025Z,99975.41
2023-05-12T19:01:40.634Z,99974.50
2023-05-12T19:03:42.206Z,99976.59
2023-05-12T19:05:46.355Z,99978.97
2023-05-12T19:07:47.972Z,99981.06
2023-05-12T19:09:49.605Z,99986.34
2023-05-12T19:11:51.366Z,99980.69
2023-05-12T19:13:52.991Z,99980.66
2023-05-12T19:15:54.550Z,99982.94
2023-05-12T19:17:56.255Z,99984.78
2023-05-12T19:19:57.834Z,99988.72
2023-05-12T19:21:59.584Z,99988.34
2023-05-12T19:24:01.453Z,99993.38
2023-05-12T19:26:03.099Z,99997.03
2023-05-12T19:28:04.912Z,99989.50
2023-05-12T19:30:07.168Z,99999.06
2023-05-12T19:32:09.040Z,99998.78
2023-05-12T19:34:10.825Z,99996.03
2023-05-12T19:36:12.417Z,99999.19
2023-05-12T19:38:14.256Z,99995.91
2023-05-12T19:40:15.835Z,100002.25
2023-05-12T19:42:17.389Z,100004.84
2023-05-12T19:44:19.102Z,99997.59
2023-05-12T19:46:21.016Z,100006.59
2023-05-12T19:48:22.606Z,100003.22
2023-05-12T19:50:24.138Z,100005.91
2023-05-12T19:52:25.744Z,100009.53
2023-05-12T19:54:27.406Z,100007.28
2023-05-12T19:56:29.624Z,100010.63
2023-05-12T19:58:31.152Z,100012.09
2023-05-12T20:00:32.746Z,100018.09
2023-05-12T20:02:34.345Z,100015.59
2023-05-12T20:04:35.901Z,100018.19
2023-05-12T20:06:37.536Z,100026.09
2023-05-12T20:08:39.060Z,100020.91
2023-05-12T20:10:40.598Z,100026.91
2023-05-12T20:12:42.200Z,100028.91
2023-05-12T20:14:43.763Z,100027.69
2023-05-12T20:16:45.399Z,100024.69
2023-05-12T20:18:47.029Z,100036.00
2023-05-12T20:20:48.900Z,100031.97
2023-05-12T20:22:50.445Z,100038.47
2023-05-12T20:24:52.035Z,100040.19
2023-05-12T20:26:54.073Z,100043.50
2023-05-12T20:28:55.592Z,100041.53
2023-05-12T20:30:57.222Z,100042.72
2023-05-12T20:32:58.822Z,100041.94
2023-05-12T20:35:00.419Z,100054.56
2023-05-12T20:37:02.042Z,100042.44
2023-05-12T20:39:07.093Z,100039.47
2023-05-12T20:41:09.133Z,100050.69
2023-05-12T20:43:10.814Z,100051.63
2023-05-12T20:45:13.462Z,100049.19
2023-05-12T20:47:15.063Z,100057.31
2023-05-12T20:49:16.722Z,100053.28
2023-05-12T20:51:18.298Z,100061.94
2023-05-12T20:53:19.888Z,100057.22
2023-05-12T20:55:21.542Z,100058.13
2023-05-12T20:57:23.318Z,100061.38
2023-05-12T20:59:24.888Z,100066.13
2023-05-12T21:01:26.481Z,100064.84
2023-05-12T21:03:28.192Z,100074.56
2023-05-12T21:05:30.194Z,100066.94
2023-05-12T21:07:32.084Z,100067.59
2023-05-12T21:09:33.736Z,100073.34
2023-05-12T21:11:35.341Z,100068.50
2023-05-12T21:13:36.947Z,100069.44
2023-05-12T21:15:38.454Z,100069.31
2023-05-12T21:17:40.965Z,100070.56
2023-05-12T21:19:44.002Z,100070.31
2023-05-12T21:21:45.734Z,100072.63
2023-05-12T21:23:47.309Z,100067.91
2023-05-12T21:25:49.173Z,100068.38
2023-05-12T21:27:51.825Z,100066.28
2023-05-12T21:29:53.318Z,100063.28
2023-05-12T21:31:54.863Z,100068.25
2023-05-12T21:33:56.453Z,100075.59
2023-05-12T21:35:58.645Z,100076.88
2023-05-12T21:38:00.225Z,100083.00
2023-05-12T21:40:02.119Z,100079.78
2023-05-12T21:42:03.932Z,100072.16
2023-05-12T21:44:10.998Z,100078.00
2023-05-12T21:46:12.825Z,100086.44
2023-05-12T21:48:15.108Z,100083.63
2023-05-12T21:50:17.757Z,100085.22
2023-05-12T21:52:19.334Z,100085.09
2023-05-12T21:54:20.962Z,100087.41
2023-05-12T21:56:23.059Z,100089.91
2023-05-12T21:58:24.697Z,100084.47
2023-05-12T22:00:26.314Z,100090.00
2023-05-12T22:02:27.838Z,100088.81
2023-05-12T22:04:29.365Z,100092.75
2023-05-12T22:06:31.170Z,100091.78
2023-05-12T22:08:32.784Z,100090.84
2023-05-12T22:10:34.323Z,100089.47
2023-05-12T22:12:35.934Z,100085.63
2023-05-12T22:14:37.828Z,100089.97
2023-05-12T22:16:42.156Z,100077.88
2023-05-12T22:18:44.558Z,100082.38
2023-05-12T22:20:46.462Z,100086.19
2023-05-12T22:22:48.013Z,100080.53
2023-05-12T22:24:49.641Z,100079.72
2023-05-12T22:26:51.204Z,100084.22
2023-05-12T22:28:52.746Z,100086.84
2023-05-12T22:30:54.277Z,100080.97
2023-05-12T22:32:56.314Z,100089.16
2023-05-12T22:34:57.934Z,100088.00
2023-05-12T22:36:59.524Z,100089.69
2023-05-12T22:39:01.134Z,100101.53
2023-05-12T22:41:02.655Z,100101.63
2023-05-12T22:43:04.316Z,100096.16
2023-05-12T22:45:06.967Z,100093.13
2023-05-12T22:47:08.773Z,100095.97
2023-05-12T22:49:10.379Z,100098.25
2023-05-12T22:51:11.929Z,100103.41
2023-05-12T22:53:13.982Z,100106.72
2023-05-12T22:55:15.530Z,100095.94
2023-05-12T22:57:17.078Z,100095.56
2023-05-12T22:59:18.616Z,100102.13
2023-05-12T23:01:20.200Z,100095.22
2023-05-12T23:03:21.787Z,100090.34
2023-05-12T23:05:23.439Z,100092.06
2023-05-12T23:07:24.949Z,100086.38
2023-05-12T23:09:26.469Z,100096.38
2023-05-12T23:11:28.000Z,100091.34
2023-05-12T23:13:29.826Z,100079.97
2023-05-12T23:15:31.421Z,100083.25
2023-05-12T23:17:33.277Z,100084.72
2023-05-12T23:19:35.378Z,100090.44
2023-05-12T23:21:36.913Z,100089.84
2023-05-12T23:23:38.438Z,100092.09
2023-05-12T23:25:41.814Z,100089.06
2023-05-12T23:27:43.349Z,100095.81
2023-05-12T23:29:44.931Z,100092.22
2023-05-12T23:31:46.537Z,100091.25
2023-05-12T23:33:48.190Z,100086.16
2023-05-12T23:35:49.809Z,100091.66
2023-05-12T23:37:51.418Z,100095.56
2023-05-12T23:39:52.948Z,100093.53
2023-05-12T23:41:54.454Z,100099.88
2023-05-12T23:43:56.049Z,100095.22
2023-05-12T23:45:58.225Z,100092.34
2023-05-12T23:48:00.511Z,100093.59
2023-05-12T23:50:02.166Z,100088.53
2023-05-12T23:52:03.906Z,100090.78
2023-05-12T23:54:05.672Z,100092.81
2023-05-12T23:56:07.844Z,100091.63
2023-05-12T23:58:10.760Z,100086.56
